Time;durP1;ratioP1;P1;durP2;ratioP2;P2;SDS_P1;SDS_P2;PMS_P1;PMS_P2;Temp;Humidity;BMP_temperature;BMP_pressure;BME280_temperature;BME280_humidity;BME280_pressure;Samples;Min_cycle;Max_cycle;Signal;HPM_P1;HPM_P2
2021/03/18 00:01:54;;;;;;;13.90;12.70;;;1.90;99.90;;;;;;5033710;28;20446;-79
2021/03/18 00:04:20;;;;;;;9.13;8.20;;;1.90;99.90;;;;;;5016116;28;20455;-78
2021/03/18 00:06:48;;;;;;;8.17;7.37;;;1.90;99.90;;;;;;5033467;28;20479;-78
2021/03/18 00:09:17;;;;;;;12.67;8.07;;;1.90;99.90;;;;;;5040886;28;20830;-78
2021/03/18 00:11:46;;;;;;;11.03;8.67;;;1.90;99.90;;;;;;5033613;28;20443;-77
2021/03/18 00:14:14;;;;;;;11.77;9.37;;;1.90;99.90;;;;;;5032433;28;20450;-79
2021/03/18 00:16:41;;;;;;;12.03;8.63;;;1.90;99.90;;;;;;5032934;28;20431;-76
2021/03/18 00:19:08;;;;;;;8.90;7.83;;;1.90;99.90;;;;;;5031420;28;20475;-76
2021/03/18 00:21:34;;;;;;;11.30;10.17;;;1.80;99.90;;;;;;5024954;28;20435;-77
2021/03/18 00:24:00;;;;;;;11.63;10.10;;;1.80;99.90;;;;;;5015185;28;20868;-77
2021/03/18 00:26:29;;;;;;;12.57;10.67;;;1.90;99.90;;;;;;5032443;28;20440;-76
2021/03/18 00:28:57;;;;;;;9.67;8.63;;;1.80;99.90;;;;;;5063069;22;20490;-78
2021/03/18 00:31:26;;;;;;;11.67;9.47;;;1.80;99.90;;;;;;5047267;28;20434;-78
2021/03/18 00:33:53;;;;;;;9.13;8.10;;;1.80;99.90;;;;;;5046897;28;20523;-78
2021/03/18 00:36:20;;;;;;;10.83;8.40;;;1.80;99.90;;;;;;5038758;28;20452;-78
2021/03/18 00:38:47;;;;;;;10.83;8.27;;;1.80;99.90;;;;;;5047768;28;20461;-78
2021/03/18 00:41:14;;;;;;;10.77;9.07;;;1.90;99.90;;;;;;5043330;28;20449;-78
2021/03/18 00:43:41;;;;;;;11.50;8.97;;;1.80;99.90;;;;;;5040340;28;20511;-79
2021/03/18 00:46:10;;;;;;;12.53;9.07;;;1.80;99.90;;;;;;5044042;28;20473;-78
2021/03/18 00:48:40;;;;;;;11.53;8.67;;;1.80;99.90;;;;;;5028558;28;20562;-78
2021/03/18 00:51:08;;;;;;;10.37;8.67;;;1.90;99.90;;;;;;5046048;28;20456;-79
2021/03/18 00:53:38;;;;;;;11.50;8.67;;;1.90;99.90;;;;;;5026365;28;20451;-79
2021/03/18 00:56:08;;;;;;;10.57;8.20;;;1.80;99.90;;;;;;5046738;28;20430;-78
2021/03/18 00:58:35;;;;;;;11.60;9.20;;;1.80;99.90;;;;;;5037934;28;20465;-78
2021/03/18 01:01:04;;;;;;;12.00;8.77;;;1.80;99.90;;;;;;5039820;28;20453;-79
2021/03/18 01:03:35;;;;;;;13.17;8.67;;;1.80;99.90;;;;;;5028036;28;20470;-79
2021/03/18 01:06:05;;;;;;;9.97;8.20;;;1.90;99.90;;;;;;5031898;28;20448;-79
2021/03/18 01:08:35;;;;;;;12.33;9.20;;;1.90;99.90;;;;;;5033133;28;20985;-78
2021/03/18 01:11:05;;;;;;;10.40;8.47;;;1.90;99.90;;;;;;5038103;28;20508;-78
2021/03/18 01:13:32;;;;;;;10.53;9.07;;;1.90;99.90;;;;;;5038913;28;20450;-78
2021/03/18 01:16:03;;;;;;;10.57;8.43;;;1.90;99.90;;;;;;5030862;28;20438;-78
2021/03/18 01:18:37;;;;;;;14.07;11.33;;;1.90;99.90;;;;;;5028407;28;20458;-79
2021/03/18 01:21:04;;;;;;;11.50;10.27;;;1.90;99.90;;;;;;5044525;28;20458;-79
2021/03/18 01:23:31;;;;;;;11.60;10.40;;;1.90;99.90;;;;;;5036682;28;20446;-79
2021/03/18 01:25:58;;;;;;;12.27;9.60;;;2.00;99.90;;;;;;5038873;28;20452;-79
2021/03/18 01:28:25;;;;;;;12.57;9.00;;;1.90;99.90;;;;;;5047740;28;20476;-78
2021/03/18 01:30:52;;;;;;;12.07;10.33;;;1.90;99.90;;;;;;5046718;28;20916;-78
2021/03/18 01:33:18;;;;;;;13.43;11.27;;;1.90;99.90;;;;;;5046945;28;20445;-79
2021/03/18 01:35:45;;;;;;;12.83;10.90;;;1.90;99.90;;;;;;5035554;28;21131;-79
2021/03/18 01:38:12;;;;;;;11.83;9.77;;;2.00;99.90;;;;;;5045553;28;20801;-78
2021/03/18 01:40:39;;;;;;;12.67;9.47;;;2.00;99.90;;;;;;5031678;28;20470;-78
2021/03/18 01:43:05;;;;;;;12.00;9.30;;;2.00;99.90;;;;;;5033831;28;20455;-78
2021/03/18 01:45:31;;;;;;;12.53;9.13;;;2.00;99.90;;;;;;5039719;28;20442;-78
2021/03/18 01:47:58;;;;;;;11.53;8.60;;;2.00;99.90;;;;;;5049821;28;20475;-79
2021/03/18 01:50:28;;;;;;;11.57;9.13;;;2.00;99.90;;;;;;5037826;28;20476;-79
2021/03/18 01:52:57;;;;;;;10.10;8.80;;;2.00;99.90;;;;;;5031428;28;20454;-78
2021/03/18 01:55:27;;;;;;;9.37;8.30;;;2.10;99.90;;;;;;5045861;28;20449;-78
2021/03/18 01:57:54;;;;;;;12.17;9.43;;;2.10;99.90;;;;;;5033067;28;20457;-78
2021/03/18 02:00:22;;;;;;;12.60;9.17;;;2.10;99.90;;;;;;5046766;28;20467;-78
2021/03/18 02:02:48;;;;;;;11.37;8.47;;;2.00;99.90;;;;;;5032513;28;20451;-78
2021/03/18 02:05:15;;;;;;;9.90;8.77;;;2.00;99.90;;;;;;5035391;28;20451;-78
2021/03/18 02:07:41;;;;;;;12.27;9.10;;;2.00;99.90;;;;;;5041715;28;20466;-79
2021/03/18 02:10:11;;;;;;;11.73;9.43;;;1.90;99.90;;;;;;5046450;28;20460;-77
2021/03/18 02:12:38;;;;;;;11.03;8.20;;;2.00;99.90;;;;;;5048658;28;20451;-78
2021/03/18 02:15:07;;;;;;;12.30;9.50;;;2.00;99.90;;;;;;5048696;28;20439;-78
2021/03/18 02:17:43;;;;;;;9.90;8.57;;;2.00;99.90;;;;;;5030249;28;20452;-78
2021/03/18 02:20:40;;;;;;;13.33;8.67;;;2.00;99.90;;;;;;5054399;28;20453;-78
2021/03/18 02:23:44;;;;;;;10.43;8.30;;;2.00;99.90;;;;;;5035967;28;20466;-78
2021/03/18 02:26:25;;;;;;;11.87;8.23;;;1.90;99.90;;;;;;4951338;28;20504;-78
2021/03/18 02:29:06;;;;;;;13.27;8.80;;;2.00;99.90;;;;;;4972279;28;20489;-78
2021/03/18 02:31:49;;;;;;;15.60;9.10;;;1.90;99.90;;;;;;5017877;28;20433;-79
2021/03/18 02:34:40;;;;;;;10.67;8.27;;;2.00;99.90;;;;;;5033876;28;20453;-78
2021/03/18 02:37:11;;;;;;;12.03;9.80;;;2.00;99.90;;;;;;5052712;28;20437;-78
2021/03/18 02:39:42;;;;;;;12.47;8.97;;;2.00;99.90;;;;;;5049302;28;20444;-78
2021/03/18 02:42:17;;;;;;;12.30;9.47;;;2.00;99.90;;;;;;5049691;28;20509;-77
2021/03/18 02:44:45;;;;;;;12.63;9.80;;;2.00;99.90;;;;;;5043053;28;20434;-78
2021/03/18 02:47:12;;;;;;;12.73;9.10;;;2.00;99.90;;;;;;5030063;28;21127;-78
2021/03/18 02:49:42;;;;;;;11.43;8.57;;;2.00;99.90;;;;;;5052001;28;20474;-77
2021/03/18 02:52:15;;;;;;;10.30;9.10;;;2.00;99.90;;;;;;5054903;28;20449;-77
2021/03/18 02:54:43;;;;;;;10.03;8.00;;;2.00;99.90;;;;;;5033377;28;20459;-78
2021/03/18 02:57:12;;;;;;;12.60;9.50;;;2.00;99.90;;;;;;5031996;28;20447;-79
2021/03/18 02:59:41;;;;;;;11.43;8.03;;;1.90;99.90;;;;;;5048018;28;20873;-78
2021/03/18 03:02:12;;;;;;;11.37;8.20;;;1.90;99.90;;;;;;5031116;28;20447;-78
2021/03/18 03:04:40;;;;;;;12.90;8.57;;;1.90;99.90;;;;;;5045051;28;20820;-77
2021/03/18 03:07:08;;;;;;;11.07;8.57;;;1.90;99.90;;;;;;5045481;28;20477;-78
2021/03/18 03:09:37;;;;;;;11.73;8.07;;;2.00;99.90;;;;;;5043673;28;21012;-78
2021/03/18 03:12:06;;;;;;;11.83;9.00;;;1.90;99.90;;;;;;5034412;28;20470;-78
2021/03/18 03:14:34;;;;;;;11.63;8.93;;;1.90;99.90;;;;;;5038605;28;21018;-78
2021/03/18 03:17:02;;;;;;;11.83;8.77;;;1.90;99.90;;;;;;5047980;28;20426;-78
2021/03/18 03:19:30;;;;;;;11.17;8.47;;;1.90;99.90;;;;;;5046145;28;20470;-77
2021/03/18 03:21:58;;;;;;;10.63;8.40;;;1.90;99.90;;;;;;5030690;28;20850;-78
2021/03/18 03:24:25;;;;;;;14.20;10.77;;;1.80;99.90;;;;;;5028878;28;20534;-78
2021/03/18 03:26:54;;;;;;;13.37;10.87;;;1.80;99.90;;;;;;5031110;28;20447;-77
2021/03/18 03:29:20;;;;;;;13.93;12.07;;;1.80;99.90;;;;;;5046422;28;20848;-77
2021/03/18 03:31:47;;;;;;;16.27;14.73;;;1.90;99.90;;;;;;5047833;28;20911;-78
2021/03/18 03:34:13;;;;;;;15.33;13.83;;;1.90;99.90;;;;;;5026555;28;20453;-79
2021/03/18 03:36:40;;;;;;;15.70;14.27;;;1.90;99.90;;;;;;5047873;28;20442;-80
2021/03/18 03:39:07;;;;;;;16.93;15.20;;;1.80;99.90;;;;;;5028736;28;20553;-80
2021/03/18 03:41:34;;;;;;;15.60;14.10;;;1.80;99.90;;;;;;5020488;28;20440;-82
2021/03/18 03:44:01;;;;;;;14.13;12.63;;;1.80;99.90;;;;;;5030489;28;20504;-83
2021/03/18 03:46:27;;;;;;;14.47;12.93;;;1.80;99.90;;;;;;5035220;28;20963;-82
2021/03/18 03:48:54;;;;;;;14.10;12.70;;;1.80;99.90;;;;;;5033357;28;20483;-80
2021/03/18 03:51:21;;;;;;;16.60;14.27;;;1.80;99.90;;;;;;5038187;28;20453;-81
2021/03/18 03:53:52;;;;;;;16.43;14.63;;;1.80;99.90;;;;;;5029348;28;20469;-81
2021/03/18 03:56:24;;;;;;;12.90;11.40;;;1.80;99.90;;;;;;5043732;28;20423;-82
2021/03/18 03:58:52;;;;;;;14.73;13.13;;;1.80;99.90;;;;;;5043157;28;20455;-81
2021/03/18 04:01:29;;;;;;;15.57;13.70;;;1.90;99.90;;;;;;5047257;28;20442;-81
2021/03/18 04:04:02;;;;;;;15.47;13.30;;;1.90;99.90;;;;;;5034383;28;20438;-78
2021/03/18 04:06:33;;;;;;;14.93;13.30;;;2.00;99.90;;;;;;5037835;28;20455;-79
2021/03/18 04:09:00;;;;;;;16.20;12.73;;;1.90;99.90;;;;;;5037991;28;20541;-79
2021/03/18 04:11:27;;;;;;;15.20;12.87;;;1.90;99.90;;;;;;5033549;28;20451;-79
2021/03/18 04:13:54;;;;;;;16.37;14.77;;;1.90;99.90;;;;;;5031334;28;20643;-78
2021/03/18 04:16:23;;;;;;;15.30;13.37;;;1.90;99.90;;;;;;5032804;28;20820;-83
2021/03/18 04:18:54;;;;;;;17.60;14.17;;;1.90;99.90;;;;;;5034862;28;20489;-82
2021/03/18 04:21:22;;;;;;;16.30;13.73;;;1.90;99.90;;;;;;5029391;28;20455;-78
2021/03/18 04:23:49;;;;;;;16.37;12.57;;;1.90;99.90;;;;;;5048058;28;20838;-83
2021/03/18 04:26:16;;;;;;;14.63;11.77;;;1.90;99.90;;;;;;5042286;28;20431;-78
2021/03/18 04:28:45;;;;;;;20.93;12.60;;;1.90;99.90;;;;;;5040904;28;20539;-78
2021/03/18 04:31:11;;;;;;;15.07;11.13;;;1.90;99.90;;;;;;5044562;28;20438;-78
2021/03/18 04:33:39;;;;;;;17.63;12.30;;;1.90;99.90;;;;;;5033492;28;20443;-79
2021/03/18 04:36:07;;;;;;;14.80;11.23;;;1.90;99.90;;;;;;5036096;28;20457;-79
2021/03/18 04:38:35;;;;;;;16.70;12.37;;;1.90;99.90;;;;;;5024020;28;20849;-79
2021/03/18 04:41:01;;;;;;;16.13;11.90;;;1.90;99.90;;;;;;5041306;28;20443;-79
2021/03/18 04:43:28;;;;;;;18.83;12.30;;;1.90;99.90;;;;;;5046181;28;20580;-79
2021/03/18 04:45:58;;;;;;;14.73;12.53;;;1.90;99.90;;;;;;5030727;28;20459;-79
2021/03/18 04:48:25;;;;;;;15.47;12.47;;;1.90;99.90;;;;;;5046316;28;20474;-78
2021/03/18 04:50:52;;;;;;;16.00;12.10;;;1.90;99.90;;;;;;5047801;28;20856;-78
2021/03/18 04:53:20;;;;;;;17.77;12.33;;;1.90;99.90;;;;;;5038303;28;20450;-79
2021/03/18 04:55:47;;;;;;;16.10;11.37;;;1.90;99.90;;;;;;5046672;28;20436;-79
2021/03/18 04:58:14;;;;;;;14.60;12.13;;;1.90;99.90;;;;;;5032879;28;20469;-78
2021/03/18 05:00:43;;;;;;;15.27;12.20;;;1.90;99.90;;;;;;5046879;28;20460;-79
2021/03/18 05:03:12;;;;;;;15.93;12.20;;;1.90;99.90;;;;;;5027680;28;20985;-79
2021/03/18 05:05:39;;;;;;;17.13;12.70;;;1.90;99.90;;;;;;5025425;28;20461;-79
2021/03/18 05:08:06;;;;;;;13.57;11.37;;;1.90;99.90;;;;;;5044230;28;20532;-79
2021/03/18 05:10:39;;;;;;;17.43;13.17;;;1.90;99.90;;;;;;5048301;28;20458;-79
2021/03/18 05:13:08;;;;;;;16.63;12.53;;;1.90;99.90;;;;;;5040394;28;20438;-79
2021/03/18 05:15:36;;;;;;;17.63;13.50;;;1.80;99.90;;;;;;5040433;28;20432;-79
2021/03/18 05:18:04;;;;;;;17.03;12.97;;;1.80;99.90;;;;;;5033438;28;20455;-79
2021/03/18 05:20:31;;;;;;;16.17;11.70;;;1.80;99.90;;;;;;5036954;28;20548;-78
2021/03/18 05:22:59;;;;;;;17.73;12.90;;;1.90;99.90;;;;;;5028757;28;20526;-79
2021/03/18 05:25:29;;;;;;;16.53;12.27;;;1.90;99.90;;;;;;5047786;28;20452;-78
2021/03/18 05:27:56;;;;;;;13.47;11.37;;;1.90;99.90;;;;;;5045845;28;20481;-79
2021/03/18 05:30:25;;;;;;;15.43;11.03;;;1.90;99.90;;;;;;5044480;28;20469;-79
2021/03/18 05:32:51;;;;;;;16.30;12.63;;;1.90;99.90;;;;;;5044284;28;20475;-79
2021/03/18 05:35:18;;;;;;;16.40;12.43;;;1.90;99.90;;;;;;5025917;28;20453;-78
2021/03/18 05:37:44;;;;;;;15.73;12.17;;;1.90;99.90;;;;;;5037128;28;20451;-79
2021/03/18 05:40:13;;;;;;;15.83;12.73;;;1.80;99.90;;;;;;5047561;28;20453;-79
2021/03/18 05:42:39;;;;;;;14.50;10.63;;;1.80;99.90;;;;;;5029725;28;20457;-78
2021/03/18 05:45:09;;;;;;;15.70;11.67;;;1.80;99.90;;;;;;5047071;28;20501;-78
2021/03/18 05:47:36;;;;;;;13.67;11.87;;;1.80;99.90;;;;;;5028926;28;20473;-78
2021/03/18 05:50:05;;;;;;;16.97;12.40;;;1.80;99.90;;;;;;5053073;28;20463;-79
2021/03/18 05:52:34;;;;;;;15.30;12.10;;;1.90;99.90;;;;;;5028256;28;20452;-78
2021/03/18 05:55:00;;;;;;;13.90;11.40;;;1.90;99.90;;;;;;5036035;28;20840;-78
2021/03/18 05:57:27;;;;;;;14.70;11.43;;;1.90;99.90;;;;;;5051453;28;20438;-78
2021/03/18 05:59:54;;;;;;;17.20;11.67;;;2.00;99.90;;;;;;5040354;28;20462;-79
2021/03/18 06:02:21;;;;;;;14.83;10.90;;;2.00;99.90;;;;;;5034615;28;20823;-79
2021/03/18 06:04:48;;;;;;;14.90;11.67;;;2.10;99.90;;;;;;5030075;28;20439;-78
2021/03/18 06:07:15;;;;;;;14.63;9.97;;;2.20;99.90;;;;;;5036570;28;20489;-79
2021/03/18 06:09:41;;;;;;;15.13;11.60;;;2.20;99.90;;;;;;5027979;28;20498;-79
2021/03/18 06:12:08;;;;;;;15.53;11.60;;;2.30;99.90;;;;;;5028333;28;20459;-78
2021/03/18 06:14:35;;;;;;;13.00;10.53;;;2.40;99.90;;;;;;5042989;28;20449;-79
2021/03/18 06:17:02;;;;;;;14.20;9.70;;;2.30;99.90;;;;;;5035684;28;20450;-79
2021/03/18 06:19:29;;;;;;;14.00;10.77;;;2.30;99.90;;;;;;5045697;28;20458;-78
2021/03/18 06:21:57;;;;;;;12.67;10.53;;;2.30;99.90;;;;;;5043012;28;20816;-78
2021/03/18 06:24:26;;;;;;;11.07;9.43;;;2.30;99.90;;;;;;5043832;28;20439;-80
2021/03/18 06:26:53;;;;;;;12.37;9.27;;;2.30;99.90;;;;;;5029728;28;20463;-77
2021/03/18 06:29:31;;;;;;;16.07;10.37;;;2.40;99.90;;;;;;5040302;22;21942;-77
2021/03/18 06:32:14;;;;;;;12.40;9.67;;;2.40;99.90;;;;;;5025247;28;20458;-78
2021/03/18 06:34:44;;;;;;;11.77;8.87;;;2.50;99.90;;;;;;5039815;28;20434;-78
2021/03/18 06:37:31;;;;;;;12.43;9.60;;;2.50;99.90;;;;;;5034289;28;20936;-76
2021/03/18 06:39:59;;;;;;;12.63;9.87;;;2.60;99.90;;;;;;5032565;28;20797;-78
2021/03/18 06:42:25;;;;;;;13.10;8.73;;;2.70;99.90;;;;;;5017666;28;20453;-78
2021/03/18 06:45:05;;;;;;;11.27;9.70;;;2.80;99.90;;;;;;5029851;28;20803;-78
2021/03/18 06:47:40;;;;;;;12.80;9.30;;;2.90;99.90;;;;;;5013102;28;20831;-78
2021/03/18 06:50:08;;;;;;;10.40;7.67;;;3.00;99.90;;;;;;5025841;28;20461;-78
2021/03/18 06:52:38;;;;;;;11.37;8.50;;;3.00;99.90;;;;;;5018685;28;20438;-78
2021/03/18 06:55:07;;;;;;;12.33;8.87;;;3.20;99.90;;;;;;5025018;28;20455;-78
2021/03/18 06:57:33;;;;;;;10.27;7.90;;;3.30;99.90;;;;;;5027732;28;20486;-78
2021/03/18 07:00:00;;;;;;;12.80;8.37;;;3.40;99.90;;;;;;5032096;28;20467;-78
2021/03/18 07:02:27;;;;;;;9.90;7.80;;;3.50;99.90;;;;;;5028582;28;20445;-78
2021/03/18 07:04:55;;;;;;;9.97;7.17;;;3.40;99.90;;;;;;5024764;28;20463;-78
2021/03/18 07:07:25;;;;;;;10.07;8.30;;;3.30;99.90;;;;;;5031051;28;20472;-78
2021/03/18 07:09:53;;;;;;;9.20;7.60;;;3.30;99.90;;;;;;5033455;28;20481;-78
2021/03/18 07:12:25;;;;;;;10.03;7.47;;;3.40;99.90;;;;;;5011122;28;20532;-77
2021/03/18 07:14:52;;;;;;;9.67;7.10;;;3.40;99.90;;;;;;5031954;28;20494;-78
2021/03/18 07:17:27;;;;;;;8.53;6.47;;;3.60;99.90;;;;;;5023248;28;20458;-78
2021/03/18 07:20:09;;;;;;;10.10;7.53;;;3.80;99.90;;;;;;5018841;28;20463;-78
2021/03/18 07:22:41;;;;;;;8.27;6.97;;;3.90;99.90;;;;;;5026311;28;20196;-78
2021/03/18 07:25:09;;;;;;;10.27;7.47;;;3.90;99.90;;;;;;5024676;28;20196;-78
2021/03/18 07:27:40;;;;;;;15.27;13.67;;;4.00;99.90;;;;;;5025051;28;20467;-78
2021/03/18 07:30:08;;;;;;;13.73;8.67;;;4.20;99.90;;;;;;5026763;28;20896;-79
2021/03/18 07:32:35;;;;;;;10.10;7.57;;;4.60;99.90;;;;;;5010656;28;20676;-77
2021/03/18 07:35:01;;;;;;;10.93;9.83;;;4.90;99.90;;;;;;5031161;28;20192;-78
2021/03/18 07:37:27;;;;;;;11.67;10.43;;;5.20;99.90;;;;;;5022519;28;20201;-77
2021/03/18 07:39:54;;;;;;;10.60;9.60;;;5.20;99.90;;;;;;5011967;28;20226;-77
2021/03/18 07:42:22;;;;;;;12.93;7.73;;;5.00;99.90;;;;;;5026573;28;20197;-77
2021/03/18 07:44:49;;;;;;;8.80;7.50;;;4.70;99.90;;;;;;5033122;28;20192;-78
2021/03/18 07:47:16;;;;;;;10.80;7.57;;;4.70;99.90;;;;;;5020441;28;20199;-77
2021/03/18 07:49:46;;;;;;;12.67;9.50;;;4.60;99.90;;;;;;5026886;28;20262;-78
2021/03/18 07:52:16;;;;;;;11.23;10.10;;;4.60;99.90;;;;;;5006476;28;20575;-78
2021/03/18 07:54:45;;;;;;;11.40;10.30;;;4.70;99.90;;;;;;5022965;28;20192;-79
2021/03/18 07:57:15;;;;;;;12.67;11.33;;;4.90;99.90;;;;;;5032837;28;20200;-79
2021/03/18 07:59:43;;;;;;;14.93;10.83;;;5.30;99.90;;;;;;5022984;28;20269;-78
2021/03/18 08:02:15;;;;;;;9.13;7.47;;;5.60;99.90;;;;;;5033861;28;20310;-76
2021/03/18 08:04:42;;;;;;;9.80;7.73;;;5.70;99.90;;;;;;5030628;28;20261;-76
2021/03/18 08:07:09;;;;;;;9.13;7.30;;;6.20;99.90;;;;;;5031756;28;20195;-77
2021/03/18 08:09:50;;;;;;;10.37;8.53;;;6.50;99.90;;;;;;5016375;28;20308;-77
2021/03/18 08:12:48;;;;;;;10.00;7.60;;;6.30;99.90;;;;;;5024969;28;20670;-77
2021/03/18 08:15:34;;;;;;;12.13;8.37;;;6.20;99.90;;;;;;5021399;28;20280;-76
2021/03/18 08:18:38;;;;;;;10.20;7.93;;;5.90;99.90;;;;;;5028823;28;20311;-77
2021/03/18 08:21:15;;;;;;;9.70;7.83;;;5.90;99.90;;;;;;5003514;28;20713;-76
2021/03/18 08:23:46;;;;;;;9.67;7.43;;;5.60;99.90;;;;;;5031655;28;20195;-77
2021/03/18 08:26:34;;;;;;;10.13;8.57;;;5.60;99.90;;;;;;5024130;28;20205;-77
2021/03/18 08:29:03;;;;;;;11.73;8.10;;;5.60;99.90;;;;;;5013012;28;20227;-77
2021/03/18 08:31:53;;;;;;;8.90;7.30;;;5.50;99.90;;;;;;5021013;28;20617;-78
2021/03/18 08:34:21;;;;;;;11.57;8.93;;;5.60;99.90;;;;;;5027977;28;20197;-77
2021/03/18 08:37:05;;;;;;;9.67;8.23;;;5.40;99.90;;;;;;5034175;28;20188;-77
2021/03/18 08:39:38;;;;;;;11.13;8.73;;;5.50;99.90;;;;;;5019410;28;20385;-77
2021/03/18 08:42:06;;;;;;;12.57;8.40;;;5.60;99.90;;;;;;5036111;28;20596;-77
2021/03/18 08:44:43;;;;;;;11.27;8.53;;;5.70;99.90;;;;;;5024762;28;20662;-76
2021/03/18 08:47:12;;;;;;;10.53;8.50;;;5.70;99.90;;;;;;5008087;28;20191;-78
2021/03/18 08:49:43;;;;;;;11.13;8.60;;;5.70;99.90;;;;;;5027457;28;20222;-77
2021/03/18 08:52:11;;;;;;;10.80;8.10;;;5.50;99.90;;;;;;5030801;28;20200;-78
2021/03/18 08:54:54;;;;;;;10.37;9.37;;;5.50;99.90;;;;;;5034925;28;20196;-78
2021/03/18 08:57:31;;;;;;;14.73;10.07;;;5.40;99.90;;;;;;5019982;28;20569;-78
2021/03/18 09:00:01;;;;;;;13.07;11.77;;;5.20;99.90;;;;;;5020674;28;20222;-77
2021/03/18 09:02:31;;;;;;;9.83;7.50;;;5.30;99.90;;;;;;5026445;28;20200;-78
2021/03/18 09:04:58;;;;;;;10.47;8.27;;;5.20;99.90;;;;;;5021136;28;20200;-77
2021/03/18 09:07:26;;;;;;;13.63;12.23;;;5.10;99.90;;;;;;5032586;28;20662;-78
2021/03/18 09:10:16;;;;;;;14.13;11.90;;;5.20;99.90;;;;;;5023320;28;20220;-78
2021/03/18 09:12:47;;;;;;;12.43;11.13;;;5.10;99.90;;;;;;5021059;28;20211;-77
2021/03/18 09:15:21;;;;;;;11.70;9.27;;;5.00;99.90;;;;;;5015214;28;20253;-78
2021/03/18 09:17:48;;;;;;;13.50;9.20;;;5.10;99.90;;;;;;5029960;28;20188;-78
2021/03/18 09:20:17;;;;;;;12.47;9.50;;;5.50;99.90;;;;;;5035791;28;20464;-78
2021/03/18 09:22:43;;;;;;;12.40;9.20;;;5.70;99.90;;;;;;5029369;28;20257;-78
2021/03/18 09:25:11;;;;;;;13.67;10.00;;;5.70;99.90;;;;;;5026853;28;20199;-78
2021/03/18 09:27:40;;;;;;;12.97;11.77;;;5.60;99.90;;;;;;5022537;28;20212;-78
2021/03/18 09:30:23;;;;;;;11.87;8.33;;;6.30;99.90;;;;;;5024463;28;20243;-76
2021/03/18 09:32:50;;;;;;;12.43;9.43;;;6.80;99.90;;;;;;5027872;28;20203;-76
2021/03/18 09:35:17;;;;;;;10.03;8.10;;;6.70;99.90;;;;;;5024480;28;20207;-75
2021/03/18 09:37:45;;;;;;;10.63;8.20;;;6.80;99.90;;;;;;5030973;28;20569;-77
2021/03/18 09:40:13;;;;;;;10.10;7.83;;;6.60;99.90;;;;;;5008689;28;20253;-77
2021/03/18 09:42:39;;;;;;;9.50;7.67;;;6.50;99.90;;;;;;5026012;28;20203;-76
2021/03/18 09:45:08;;;;;;;9.43;7.33;;;6.60;99.90;;;;;;5025636;28;20197;-77
2021/03/18 09:47:36;;;;;;;12.10;10.43;;;7.30;99.90;;;;;;5021915;28;20202;-76
2021/03/18 09:50:05;;;;;;;11.33;10.23;;;7.40;99.90;;;;;;5013752;28;20584;-77
2021/03/18 09:52:32;;;;;;;10.77;8.43;;;7.20;99.90;;;;;;5009599;28;20215;-75
2021/03/18 09:55:01;;;;;;;10.03;8.83;;;7.30;99.90;;;;;;5019771;28;20580;-76
2021/03/18 09:57:30;;;;;;;10.60;8.70;;;7.00;99.90;;;;;;5021847;28;20212;-76
2021/03/18 09:59:56;;;;;;;9.07;8.10;;;6.80;99.90;;;;;;5024133;28;20629;-76
2021/03/18 10:02:28;;;;;;;9.43;7.50;;;6.90;99.90;;;;;;5027402;28;20198;-77
2021/03/18 10:04:56;;;;;;;9.33;7.80;;;6.90;99.90;;;;;;5028472;28;20197;-77
2021/03/18 10:07:27;;;;;;;12.03;7.53;;;7.30;99.90;;;;;;5024430;28;20344;-76
2021/03/18 10:09:54;;;;;;;10.30;7.43;;;7.40;99.90;;;;;;5025642;28;20246;-76
2021/03/18 10:12:22;;;;;;;8.80;6.87;;;7.30;99.90;;;;;;5025605;28;20197;-76
2021/03/18 10:14:54;;;;;;;11.43;7.20;;;6.90;99.90;;;;;;5011415;28;20679;-77
2021/03/18 10:17:25;;;;;;;7.13;6.37;;;6.80;99.90;;;;;;5026440;28;20289;-76
2021/03/18 10:19:56;;;;;;;10.33;8.80;;;6.90;99.90;;;;;;5026515;28;20231;-77
2021/03/18 10:22:28;;;;;;;11.47;7.73;;;7.20;99.90;;;;;;5025698;28;20193;-76
2021/03/18 10:25:01;;;;;;;10.93;6.87;;;7.70;99.90;;;;;;5021954;28;20186;-77
2021/03/18 10:27:32;;;;;;;8.47;6.00;;;7.80;99.90;;;;;;5031062;28;20196;-76
2021/03/18 10:30:16;;;;;;;7.67;6.77;;;7.80;99.90;;;;;;5010957;28;20267;-75
2021/03/18 10:32:44;;;;;;;7.60;6.90;;;8.10;99.90;;;;;;5010605;28;20337;-75
2021/03/18 10:35:17;;;;;;;11.03;10.00;;;8.50;99.90;;;;;;5024831;28;20263;-77
2021/03/18 10:37:43;;;;;;;9.67;8.67;;;8.70;99.90;;;;;;5037435;28;20245;-76
2021/03/18 10:40:17;;;;;;;8.30;7.40;;;8.60;99.90;;;;;;5036074;28;20231;-76
2021/03/18 10:42:48;;;;;;;9.30;7.93;;;8.40;99.90;;;;;;5024904;28;20192;-77
2021/03/18 10:45:17;;;;;;;9.87;7.67;;;8.00;99.90;;;;;;5014543;28;20196;-76
2021/03/18 10:47:45;;;;;;;9.37;7.73;;;7.50;99.90;;;;;;5020044;28;20695;-76
2021/03/18 10:50:15;;;;;;;8.53;6.37;;;7.30;99.90;;;;;;5023016;28;20222;-77
2021/03/18 10:52:50;;;;;;;8.83;6.70;;;7.00;99.90;;;;;;5017110;28;20613;-76
2021/03/18 10:55:22;;;;;;;8.47;7.57;;;6.80;99.90;;;;;;5018289;28;20252;-76
2021/03/18 10:57:53;;;;;;;9.67;8.67;;;6.70;99.90;;;;;;5028125;28;20213;-76
2021/03/18 11:00:21;;;;;;;10.67;9.67;;;6.60;99.90;;;;;;5027849;28;20271;-79
2021/03/18 11:03:04;;;;;;;9.20;8.07;;;6.60;99.90;;;;;;5032043;28;20212;-76
2021/03/18 11:05:34;;;;;;;8.77;7.30;;;6.50;99.90;;;;;;5029429;28;20248;-77
2021/03/18 11:08:01;;;;;;;10.90;7.87;;;6.50;99.90;;;;;;5014732;28;20215;-79
2021/03/18 11:10:33;;;;;;;9.37;6.67;;;6.30;99.90;;;;;;5024220;28;20225;-78
2021/03/18 11:13:03;;;;;;;7.70;6.90;;;6.20;99.90;;;;;;5029603;28;20196;-78
2021/03/18 11:15:47;;;;;;;8.40;6.80;;;6.20;99.90;;;;;;5023713;28;20207;-79
2021/03/18 11:18:14;;;;;;;8.43;7.53;;;6.20;99.90;;;;;;5030065;28;20204;-79
2021/03/18 11:20:43;;;;;;;10.03;8.80;;;6.20;99.90;;;;;;5036622;28;20209;-78
2021/03/18 11:23:11;;;;;;;8.30;7.50;;;6.30;99.90;;;;;;5023576;28;20685;-77
2021/03/18 11:25:38;;;;;;;7.40;6.67;;;6.40;99.90;;;;;;5026636;28;20189;-78
2021/03/18 11:28:04;;;;;;;8.67;7.60;;;6.50;99.90;;;;;;5014480;28;20710;-78
2021/03/18 11:30:33;;;;;;;6.37;5.70;;;6.60;99.90;;;;;;5023099;28;20221;-79
2021/03/18 11:33:14;;;;;;;5.40;4.90;;;6.70;99.90;;;;;;5031156;28;20212;-78
2021/03/18 11:35:43;;;;;;;7.07;6.07;;;6.90;99.90;;;;;;5032006;28;20202;-77
2021/03/18 11:38:10;;;;;;;6.07;4.97;;;6.90;99.90;;;;;;5026039;28;20202;-79
2021/03/18 11:40:36;;;;;;;7.83;5.03;;;6.90;99.90;;;;;;5018416;28;20229;-78
2021/03/18 11:43:04;;;;;;;8.67;5.63;;;6.90;99.90;;;;;;5030806;28;20664;-78
2021/03/18 11:45:30;;;;;;;6.27;5.20;;;6.80;99.90;;;;;;5025129;28;20669;-78
2021/03/18 11:47:57;;;;;;;7.17;5.30;;;6.70;99.90;;;;;;5027389;28;20220;-77
2021/03/18 11:50:24;;;;;;;7.33;5.33;;;6.80;99.90;;;;;;5031074;28;20222;-76
2021/03/18 11:52:52;;;;;;;8.10;5.53;;;6.90;99.90;;;;;;5035398;28;20190;-76
2021/03/18 11:55:18;;;;;;;10.57;6.10;;;7.10;99.90;;;;;;5022377;28;20200;-76
2021/03/18 11:57:45;;;;;;;6.83;5.50;;;7.20;99.90;;;;;;5016433;28;20224;-79
2021/03/18 12:00:13;;;;;;;8.00;5.13;;;7.30;99.90;;;;;;5014642;28;20279;-77
2021/03/18 12:02:39;;;;;;;8.03;5.90;;;7.00;99.90;;;;;;5032582;28;20245;-78
2021/03/18 12:05:07;;;;;;;6.77;5.40;;;7.10;99.90;;;;;;5019133;28;20673;-78
2021/03/18 12:07:33;;;;;;;5.63;5.00;;;7.10;99.90;;;;;;5028155;28;20204;-78
2021/03/18 12:10:00;;;;;;;6.70;5.03;;;7.20;99.90;;;;;;5017062;28;20215;-78
2021/03/18 12:12:27;;;;;;;7.63;6.93;;;7.20;99.90;;;;;;5022997;28;20207;-78
2021/03/18 12:14:54;;;;;;;11.80;8.07;;;7.20;99.90;;;;;;5020822;28;20369;-75
2021/03/18 12:17:21;;;;;;;6.67;5.20;;;7.30;99.90;;;;;;5031934;28;20286;-76
2021/03/18 12:19:47;;;;;;;8.07;5.67;;;7.10;99.90;;;;;;5033086;28;20202;-76
2021/03/18 12:22:13;;;;;;;6.40;5.87;;;7.10;99.90;;;;;;5023517;28;20196;-75
2021/03/18 12:24:40;;;;;;;6.63;6.03;;;7.20;99.90;;;;;;5024789;28;20630;-78
2021/03/18 12:27:07;;;;;;;6.80;6.00;;;7.30;99.90;;;;;;5027149;28;20226;-77
2021/03/18 12:29:34;;;;;;;6.70;6.10;;;7.30;99.90;;;;;;5009452;28;20218;-75
2021/03/18 12:32:00;;;;;;;6.73;5.70;;;7.30;99.90;;;;;;5034639;28;20583;-78
2021/03/18 12:34:26;;;;;;;7.00;6.07;;;7.30;99.90;;;;;;5018332;28;20269;-78
2021/03/18 12:36:53;;;;;;;6.63;6.03;;;7.50;99.90;;;;;;5032228;28;20198;-79
2021/03/18 12:39:19;;;;;;;8.50;7.70;;;7.50;99.90;;;;;;5008977;28;20212;-77
2021/03/18 12:41:45;;;;;;;7.77;6.20;;;7.40;99.90;;;;;;5027406;28;20633;-78
2021/03/18 12:44:12;;;;;;;8.20;7.00;;;7.50;99.90;;;;;;5038180;28;20704;-78
2021/03/18 12:46:39;;;;;;;7.50;6.73;;;7.80;99.90;;;;;;5030174;28;20194;-79
2021/03/18 12:49:05;;;;;;;6.07;5.43;;;7.90;99.90;;;;;;5028204;28;20594;-76
2021/03/18 12:51:32;;;;;;;7.50;5.90;;;8.10;99.90;;;;;;5003724;28;20199;-76
2021/03/18 12:53:58;;;;;;;6.20;5.60;;;8.20;99.90;;;;;;5015731;28;20204;-78
2021/03/18 12:56:25;;;;;;;6.10;5.47;;;8.20;99.90;;;;;;5030994;28;20204;-77
2021/03/18 12:58:52;;;;;;;7.67;5.73;;;8.00;99.90;;;;;;5010647;28;20472;-78